Time;durP1;ratioP1;P1;durP2;ratioP2;P2;SDS_P1;SDS_P2;PMS_P1;PMS_P2;Temp;Humidity;BMP_temperature;BMP_pressure;BME280_temperature;BME280_humidity;BME280_pressure;Samples;Min_cycle;Max_cycle;Signal;HPM_P1;HPM_P2
2022/11/21 00:00:18;;;;;;;1999.90;999.90;;;9.10;99.90;;;;;;5094726;28;20036;-73
2022/11/21 00:02:44;;;;;;;1999.90;999.90;;;10.50;99.90;;;;;;5112635;28;20056;-73
2022/11/21 00:05:09;;;;;;;1999.90;999.90;;;10.90;99.90;;;;;;5111999;28;20116;-72
2022/11/21 00:07:35;;;;;;;1999.90;999.90;;;9.10;99.90;;;;;;5111404;28;20048;-74
2022/11/21 00:10:01;;;;;;;1999.90;999.90;;;9.60;99.90;;;;;;5112489;28;20054;-73
2022/11/21 00:12:27;;;;;;;1999.90;999.90;;;;;;;;;;5111628;28;20380;-74
2022/11/21 00:14:53;;;;;;;1999.90;999.90;;;9.50;99.90;;;;;;5113018;28;20040;-74
2022/11/21 00:17:18;;;;;;;1999.90;999.90;;;10.40;99.90;;;;;;5094890;28;20039;-73
2022/11/21 00:19:44;;;;;;;1999.90;999.90;;;10.30;99.90;;;;;;5094020;28;20051;-72
2022/11/21 00:22:09;;;;;;;1999.90;999.90;;;10.30;99.90;;;;;;5113238;28;20047;-73
2022/11/21 00:24:35;;;;;;;1999.90;999.90;;;7.00;99.90;;;;;;5093913;28;20044;-73
2022/11/21 00:27:01;;;;;;;1999.90;999.90;;;9.00;99.90;;;;;;5111936;28;20051;-73
2022/11/21 00:29:27;;;;;;;1999.90;994.90;;;8.90;99.90;;;;;;5112744;28;20451;-73
2022/11/21 00:31:53;;;;;;;1999.90;999.90;;;11.30;99.90;;;;;;5112804;28;20112;-73
2022/11/21 00:34:19;;;;;;;1999.90;999.90;;;8.00;99.90;;;;;;5112478;28;20496;-72
2022/11/21 00:36:44;;;;;;;1999.90;999.90;;;9.90;99.90;;;;;;5112206;28;20199;-73
2022/11/21 00:39:10;;;;;;;1999.90;999.90;;;7.30;99.90;;;;;;5078081;28;20055;-76
2022/11/21 00:41:36;;;;;;;1999.90;999.90;;;7.80;99.90;;;;;;5112448;28;20491;-74
2022/11/21 00:44:01;;;;;;;1999.90;999.90;;;10.60;99.90;;;;;;5111835;28;20090;-74
2022/11/21 00:46:27;;;;;;;1999.90;999.90;;;8.20;99.90;;;;;;5094635;28;20050;-76
2022/11/21 00:48:53;;;;;;;1999.90;999.90;;;9.90;99.90;;;;;;5095024;28;20055;-73
2022/11/21 00:51:18;;;;;;;1999.90;999.90;;;9.10;99.90;;;;;;5094123;28;20039;-73
2022/11/21 00:53:44;;;;;;;1999.90;999.90;;;7.70;99.90;;;;;;5112417;28;20047;-73
2022/11/21 00:56:09;;;;;;;1999.90;999.90;;;8.20;99.90;;;;;;5111597;28;20044;-73
2022/11/21 00:58:35;;;;;;;1999.90;999.90;;;11.30;99.90;;;;;;5111434;28;20136;-73
2022/11/21 01:01:08;;;;;;;1999.90;999.90;;;9.40;99.90;;;;;;5112039;28;20051;-73
2022/11/21 01:03:35;;;;;;;1999.90;999.90;;;4.80;99.90;;;;;;5112604;28;20047;-73
2022/11/21 01:06:07;;;;;;;1999.90;999.90;;;8.70;99.90;;;;;;5093237;28;20083;-73
2022/11/21 01:08:34;;;;;;;1999.90;999.90;;;8.30;99.90;;;;;;5112037;28;20035;-73
2022/11/21 01:11:05;;;;;;;1999.90;994.50;;;8.40;99.90;;;;;;5112138;28;20097;-73
2022/11/21 01:13:32;;;;;;;1999.90;999.90;;;7.90;99.90;;;;;;5112130;28;20528;-76
2022/11/21 01:16:05;;;;;;;1999.90;999.90;;;10.40;99.90;;;;;;5112619;28;20141;-73
2022/11/21 01:18:31;;;;;;;1999.90;999.90;;;;;;;;;;5094187;28;20109;-83
2022/11/21 01:21:31;;;;;;;1999.90;999.90;;;8.30;99.90;;;;;;5112146;28;20079;-73
2022/11/21 01:24:01;;;;;;;1999.90;980.83;;;8.30;99.90;;;;;;5111177;28;20456;-73
2022/11/21 01:26:29;;;;;;;1999.90;999.90;;;8.40;99.90;;;;;;5115981;28;20444;-74
2022/11/21 01:28:56;;;;;;;1999.90;975.78;;;8.30;99.90;;;;;;5115420;28;20373;-73
2022/11/21 01:31:24;;;;;;;1999.90;999.90;;;8.10;99.90;;;;;;5115724;28;20090;-73
2022/11/21 01:33:50;;;;;;;1999.90;999.90;;;8.80;99.90;;;;;;5115449;28;20380;-73
2022/11/21 01:36:27;;;;;;;1999.90;999.90;;;8.50;99.90;;;;;;5115487;28;20637;-73
2022/11/21 01:38:56;;;;;;;1999.90;999.90;;;8.50;99.90;;;;;;5096934;28;20501;-73
2022/11/21 01:41:30;;;;;;;1999.90;978.75;;;8.40;99.90;;;;;;5115458;28;20142;-73
2022/11/21 01:43:56;;;;;;;1999.90;999.90;;;8.30;99.90;;;;;;5096618;28;20086;-73
2022/11/21 01:46:22;;;;;;;1999.90;999.90;;;10.00;99.90;;;;;;5115719;28;20073;-73
2022/11/21 01:48:48;;;;;;;1999.90;999.90;;;9.20;99.90;;;;;;5115043;28;20046;-73
2022/11/21 01:51:18;;;;;;;1999.90;999.90;;;9.70;99.90;;;;;;5114959;28;20130;-73
2022/11/21 01:53:50;;;;;;;1999.90;999.90;;;8.50;99.90;;;;;;5115148;28;20043;-73
2022/11/21 01:56:16;;;;;;;1999.90;999.90;;;;;;;;;;5114141;28;20104;-75
2022/11/21 01:58:44;;;;;;;1999.90;999.90;;;6.60;99.90;;;;;;5114904;28;20043;-75
2022/11/21 02:01:10;;;;;;;1999.90;999.90;;;7.40;99.90;;;;;;5115224;28;20369;-73
2022/11/21 02:03:37;;;;;;;1999.90;999.90;;;7.80;99.90;;;;;;5096071;28;20058;-76
2022/11/21 02:06:07;;;;;;;1999.90;999.90;;;8.30;99.90;;;;;;5114754;28;20441;-73
2022/11/21 02:08:33;;;;;;;1999.90;999.90;;;7.20;99.90;;;;;;5115242;28;20058;-73
2022/11/21 02:11:14;;;;;;;1999.90;999.90;;;7.20;99.90;;;;;;5079470;28;20130;-73
2022/11/21 02:13:39;;;;;;;1999.90;999.90;;;7.20;99.90;;;;;;5114486;28;20427;-74
2022/11/21 02:16:06;;;;;;;1999.90;999.90;;;9.20;99.90;;;;;;5114364;28;20051;-73
2022/11/21 02:18:32;;;;;;;1999.90;999.90;;;9.30;99.90;;;;;;5114888;28;20039;-72
2022/11/21 02:21:06;;;;;;;1999.90;999.90;;;7.80;99.90;;;;;;5114012;28;20537;-73
2022/11/21 02:23:40;;;;;;;1999.90;999.90;;;8.40;99.90;;;;;;5114430;28;20508;-73
2022/11/21 02:26:07;;;;;;;1999.90;999.90;;;6.90;99.90;;;;;;5096980;28;20052;-73
2022/11/21 02:28:33;;;;;;;1999.90;999.90;;;7.20;99.90;;;;;;5114459;28;20070;-73
2022/11/21 02:30:58;;;;;;;1999.90;999.90;;;7.30;99.90;;;;;;5114309;28;20483;-73
2022/11/21 02:33:24;;;;;;;1999.90;999.90;;;7.60;99.90;;;;;;5096267;28;20055;-73
2022/11/21 02:36:00;;;;;;;1999.90;999.90;;;9.10;99.90;;;;;;5112806;28;20092;-73
2022/11/21 02:38:30;;;;;;;1999.90;999.90;;;8.70;99.90;;;;;;5114057;28;20322;-72
2022/11/21 02:41:16;;;;;;;1999.90;999.90;;;5.30;99.90;;;;;;5114585;28;20438;-73
2022/11/21 02:43:50;;;;;;;1999.90;999.90;;;7.20;99.90;;;;;;5114103;28;20134;-73
2022/11/21 02:46:15;;;;;;;1999.90;999.90;;;7.10;99.90;;;;;;5114283;28;20122;-77
2022/11/21 02:48:41;;;;;;;1999.90;999.90;;;7.20;99.90;;;;;;5096089;28;20238;-75
2022/11/21 02:51:07;;;;;;;1999.90;999.90;;;8.20;99.90;;;;;;5095821;28;20083;-73
2022/11/21 02:53:32;;;;;;;1999.90;999.90;;;5.40;99.90;;;;;;5113823;28;20044;-73
2022/11/21 02:55:58;;;;;;;1999.90;999.90;;;6.00;99.90;;;;;;5095909;28;20439;-72
2022/11/21 02:58:24;;;;;;;1999.90;999.90;;;7.80;99.90;;;;;;5113468;28;20090;-76
2022/11/21 03:00:49;;;;;;;1999.90;999.90;;;6.60;99.90;;;;;;5114045;28;20039;-72
2022/11/21 03:03:15;;;;;;;1999.90;999.90;;;4.80;99.90;;;;;;5113715;28;20563;-73
2022/11/21 03:05:41;;;;;;;1999.90;999.90;;;8.50;99.90;;;;;;5113058;28;20051;-72
2022/11/21 03:08:07;;;;;;;1999.90;999.90;;;8.70;99.90;;;;;;5112950;28;20498;-73
2022/11/21 03:10:32;;;;;;;1999.90;999.90;;;8.60;99.90;;;;;;5114244;28;20043;-72
2022/11/21 03:13:01;;;;;;;1999.90;999.90;;;6.10;99.90;;;;;;5113785;28;20036;-73
2022/11/21 03:15:29;;;;;;;1999.90;999.90;;;8.60;99.90;;;;;;5113592;28;20499;-73
2022/11/21 03:17:55;;;;;;;;;;;7.60;99.90;;;;;;5114105;28;20403;-73
2022/11/21 03:20:21;;;;;;;1999.90;999.90;;;8.80;99.90;;;;;;5113652;28;19924;-73
2022/11/21 03:22:46;;;;;;;1999.90;999.90;;;8.20;99.90;;;;;;5113069;28;20429;-73
2022/11/21 03:25:12;;;;;;;1999.90;999.90;;;7.70;99.90;;;;;;5095318;28;20043;-73
2022/11/21 03:27:38;;;;;;;1999.90;999.90;;;6.20;99.90;;;;;;5113571;28;20093;-72
2022/11/21 03:30:04;;;;;;;1999.90;999.90;;;5.70;99.90;;;;;;5113264;28;20101;-72
2022/11/21 03:32:30;;;;;;;1999.90;999.90;;;;;;;;;;5112795;28;20039;-73
2022/11/21 03:34:56;;;;;;;1999.90;999.90;;;5.10;99.90;;;;;;5112293;28;20048;-73
2022/11/21 03:37:21;;;;;;;1999.90;999.90;;;7.50;99.90;;;;;;5095064;28;20154;-73
2022/11/21 03:39:47;;;;;;;1999.90;999.90;;;8.30;99.90;;;;;;5113305;28;20451;-73
2022/11/21 03:42:13;;;;;;;1999.90;999.90;;;8.20;99.90;;;;;;5113153;28;20086;-75
2022/11/21 03:44:38;;;;;;;1999.90;999.90;;;8.00;99.90;;;;;;5112908;28;20051;-73
2022/11/21 03:47:04;;;;;;;1999.90;999.90;;;6.70;99.90;;;;;;5094117;28;20054;-72
2022/11/21 03:49:30;;;;;;;1999.90;999.90;;;8.70;99.90;;;;;;5113165;28;20043;-74
2022/11/21 03:51:55;;;;;;;1999.90;999.90;;;8.90;99.90;;;;;;5112425;28;20039;-73
2022/11/21 03:54:21;;;;;;;1999.90;999.90;;;6.50;99.90;;;;;;5112793;28;20062;-73
2022/11/21 03:56:47;;;;;;;1999.90;999.90;;;8.60;99.90;;;;;;5113094;28;20495;-73
2022/11/21 03:59:12;;;;;;;1999.90;999.90;;;6.90;99.90;;;;;;5111155;28;20388;-74
2022/11/21 04:01:38;;;;;;;1999.90;999.90;;;8.10;99.90;;;;;;5112651;28;20056;-73
2022/11/21 04:04:04;;;;;;;1999.90;999.90;;;5.60;99.90;;;;;;5112027;28;20139;-73
2022/11/21 04:06:30;;;;;;;1999.90;999.90;;;6.10;99.90;;;;;;5112608;28;20059;-73
2022/11/21 04:08:56;;;;;;;1999.90;999.90;;;6.50;99.90;;;;;;5112337;28;20062;-73
2022/11/21 04:11:23;;;;;;;1999.90;999.90;;;6.70;99.90;;;;;;5112705;28;20044;-73
2022/11/21 04:13:50;;;;;;;1999.90;999.90;;;6.30;99.90;;;;;;5094822;28;20399;-73
2022/11/21 04:16:15;;;;;;;1999.90;999.90;;;8.10;99.90;;;;;;5110978;28;20058;-73
2022/11/21 04:18:41;;;;;;;1999.90;999.90;;;7.90;99.90;;;;;;5112742;28;20040;-77
2022/11/21 04:21:08;;;;;;;1999.90;999.90;;;8.80;99.90;;;;;;5111922;28;20047;-72
2022/11/21 04:23:33;;;;;;;1999.90;999.90;;;8.20;99.90;;;;;;5112410;28;20595;-73
2022/11/21 04:25:59;;;;;;;1999.90;999.90;;;5.90;99.90;;;;;;5112665;28;20087;-73
2022/11/21 04:28:25;;;;;;;1999.90;999.90;;;5.60;99.90;;;;;;5112584;28;20039;-72
2022/11/21 04:30:51;;;;;;;1999.90;999.90;;;6.40;99.90;;;;;;5112741;28;20051;-72
2022/11/21 04:33:18;;;;;;;1999.90;999.90;;;7.90;99.90;;;;;;5094515;28;20463;-73
2022/11/21 04:35:44;;;;;;;1999.90;999.90;;;5.60;99.90;;;;;;5094565;28;20127;-73
2022/11/21 04:38:11;;;;;;;1999.90;999.90;;;5.90;99.90;;;;;;5112575;28;20054;-72
2022/11/21 04:40:37;;;;;;;1999.90;999.90;;;5.10;99.90;;;;;;5094711;28;20047;-72
2022/11/21 04:43:03;;;;;;;1999.90;999.90;;;4.70;99.90;;;;;;5112305;28;20480;-72
2022/11/21 04:45:29;;;;;;;1999.90;999.90;;;5.00;99.90;;;;;;5112859;28;20047;-72
2022/11/21 04:47:56;;;;;;;1999.90;999.90;;;;;;;;;;5094660;28;20047;-73
2022/11/21 04:50:21;;;;;;;1999.90;999.90;;;4.90;99.90;;;;;;5112641;28;20059;-72
2022/11/21 04:52:53;;;;;;;1999.90;999.90;;;6.50;99.90;;;;;;5112703;28;20043;-72
2022/11/21 04:55:20;;;;;;;1999.90;999.90;;;5.10;99.90;;;;;;5112225;28;20391;-72
2022/11/21 04:57:46;;;;;;;1999.90;999.90;;;5.00;99.90;;;;;;5111458;28;20480;-74
2022/11/21 05:00:13;;;;;;;1999.90;999.90;;;2.10;99.90;;;;;;5116403;28;20093;-72
2022/11/21 05:02:39;;;;;;;1999.90;999.90;;;4.50;99.90;;;;;;5116675;28;20055;-73
2022/11/21 05:05:05;;;;;;;1999.90;999.90;;;3.60;99.90;;;;;;5114777;28;20057;-72
2022/11/21 05:07:30;;;;;;;1999.90;999.90;;;3.20;99.90;;;;;;5116037;28;20083;-74
2022/11/21 05:09:56;;;;;;;1999.90;999.90;;;5.40;99.90;;;;;;5115371;28;20086;-72
2022/11/21 05:15:08;;;;;;;1999.90;999.90;;;2.80;99.90;;;;;;5116001;28;20055;-73
2022/11/21 05:17:33;;;;;;;1999.90;999.90;;;4.00;99.90;;;;;;5115941;28;20464;-72
2022/11/21 05:19:59;;;;;;;1999.90;999.90;;;3.70;99.90;;;;;;5097412;28;20090;-72
2022/11/21 05:22:25;;;;;;;1999.90;999.90;;;3.80;99.90;;;;;;5115256;28;20384;-73
2022/11/21 05:24:50;;;;;;;1999.90;999.90;;;4.90;99.90;;;;;;5114838;28;20059;-76
2022/11/21 05:27:16;;;;;;;1999.90;999.90;;;;;;;;;;5114300;28;20047;-72
2022/11/21 05:29:42;;;;;;;1999.90;999.90;;;3.70;99.90;;;;;;5115522;28;20048;-71
2022/11/21 05:32:08;;;;;;;1999.90;999.90;;;6.20;99.90;;;;;;5080322;28;20096;-72
2022/11/21 05:34:33;;;;;;;1999.90;999.90;;;5.20;99.90;;;;;;5097413;28;20047;-75
2022/11/21 05:36:59;;;;;;;1999.90;999.90;;;5.90;99.90;;;;;;5113679;28;20050;-72
2022/11/21 05:39:25;;;;;;;1999.90;999.90;;;6.50;99.90;;;;;;5114445;28;20044;-73
2022/11/21 05:41:51;;;;;;;1999.90;999.90;;;6.30;99.90;;;;;;5115771;28;20387;-72
2022/11/21 05:44:17;;;;;;;1999.90;999.90;;;6.50;99.90;;;;;;5115029;28;20043;-73
2022/11/21 05:46:43;;;;;;;1999.90;999.90;;;7.30;99.90;;;;;;5115636;28;20428;-73
2022/11/21 05:49:09;;;;;;;1999.90;999.90;;;3.20;99.90;;;;;;5097098;28;20487;-73
2022/11/21 05:51:34;;;;;;;1999.90;999.90;;;5.70;99.90;;;;;;5114677;28;20062;-73
2022/11/21 05:54:00;;;;;;;1999.90;999.90;;;4.40;99.90;;;;;;5114497;28;20044;-73
2022/11/21 05:56:26;;;;;;;1999.90;999.90;;;5.50;99.90;;;;;;5115272;28;20090;-74
2022/11/21 05:58:56;;;;;;;1999.90;999.90;;;3.90;99.90;;;;;;5097347;28;20075;-73
2022/11/21 06:04:07;;;;;;;1999.90;999.90;;;5.90;99.90;;;;;;5113703;28;20062;-78
2022/11/21 06:06:33;;;;;;;1999.90;999.90;;;;;;;;;;5114245;28;20608;-73
2022/11/21 06:08:59;;;;;;;1999.90;999.90;;;3.80;99.90;;;;;;5114292;28;20126;-73
2022/11/21 06:11:25;;;;;;;1999.90;999.90;;;4.10;99.90;;;;;;5113892;28;20079;-73
2022/11/21 06:13:52;;;;;;;1999.90;999.90;;;5.50;99.90;;;;;;5096896;28;20081;-73
2022/11/21 06:16:18;;;;;;;1999.90;999.90;;;5.30;99.90;;;;;;5114277;28;20127;-73
2022/11/21 06:18:46;;;;;;;1999.90;999.90;;;7.30;99.90;;;;;;5114726;28;20051;-73
2022/11/21 06:21:33;;;;;;;;;;;7.40;99.90;;;;;;5096070;28;20133;-74
2022/11/21 06:23:58;;;;;;;1999.90;999.90;;;4.30;99.90;;;;;;5112662;28;19920;-75
2022/11/21 06:26:25;;;;;;;1999.90;999.90;;;5.30;99.90;;;;;;5114528;28;20126;-73
2022/11/21 06:28:51;;;;;;;1999.90;999.90;;;7.20;99.90;;;;;;5114874;28;20096;-73
2022/11/21 06:31:19;;;;;;;1999.90;999.90;;;7.10;99.90;;;;;;5113847;28;20488;-75
2022/11/21 06:33:45;;;;;;;;;;;7.50;99.90;;;;;;5115214;28;20047;-74
2022/11/21 06:36:16;;;;;;;1999.90;999.90;;;6.10;99.90;;;;;;5114053;28;20329;-79
2022/11/21 06:38:42;;;;;;;1999.90;999.90;;;7.00;99.90;;;;;;5096537;28;20097;-74
2022/11/21 06:41:14;;;;;;;1999.90;999.90;;;4.90;99.90;;;;;;5078429;28;20092;-74
2022/11/21 06:43:41;;;;;;;1999.90;999.90;;;4.60;99.90;;;;;;5113907;28;20101;-74
2022/11/21 06:46:07;;;;;;;1999.90;999.90;;;4.00;99.90;;;;;;5114081;28;20507;-74
2022/11/21 06:48:34;;;;;;;1999.90;999.90;;;4.80;99.90;;;;;;5095749;28;20051;-74
2022/11/21 06:51:05;;;;;;;1999.90;999.90;;;4.10;99.90;;;;;;5114082;28;20047;-74
2022/11/21 06:53:30;;;;;;;1999.90;999.90;;;3.70;99.90;;;;;;5096155;28;20052;-74
2022/11/21 06:56:00;;;;;;;1999.90;999.90;;;4.10;99.90;;;;;;5113548;28;20044;-73
2022/11/21 06:58:26;;;;;;;1999.90;999.90;;;5.40;99.90;;;;;;5112695;28;20052;-74
2022/11/21 07:00:53;;;;;;;1999.90;999.90;;;;;;;;;;5095675;28;20112;-74
2022/11/21 07:03:18;;;;;;;1999.90;999.90;;;3.70;99.90;;;;;;5113888;28;20062;-73
2022/11/21 07:05:44;;;;;;;1999.90;999.90;;;5.30;99.90;;;;;;5112476;28;20051;-74
2022/11/21 07:08:10;;;;;;;1999.90;999.90;;;5.40;99.90;;;;;;5112874;28;20066;-74
2022/11/21 07:10:35;;;;;;;1999.90;999.90;;;2.70;99.90;;;;;;5095411;28;20043;-75
2022/11/21 07:15:47;;;;;;;1999.90;999.90;;;5.90;99.90;;;;;;5113694;28;20055;-75
2022/11/21 07:18:13;;;;;;;1999.90;999.90;;;3.20;99.90;;;;;;5113648;28;20085;-74
2022/11/21 07:20:40;;;;;;;1999.90;999.90;;;4.60;99.90;;;;;;5112991;28;20097;-74
2022/11/21 07:23:07;;;;;;;1999.90;999.90;;;3.70;99.90;;;;;;5113996;28;20079;-74
2022/11/21 07:25:33;;;;;;;1999.90;999.90;;;4.90;99.90;;;;;;5095332;28;20075;-74
2022/11/21 07:27:59;;;;;;;1999.90;999.90;;;;;;;;;;5113171;28;20053;-75
2022/11/21 07:30:25;;;;;;;1999.90;999.90;;;3.30;99.90;;;;;;5112525;28;20043;-75
2022/11/21 07:32:59;;;;;;;1999.90;999.90;;;4.20;99.90;;;;;;5113761;28;20581;-77
2022/11/21 07:35:25;;;;;;;1999.90;999.90;;;3.90;99.90;;;;;;5095177;28;20087;-74
2022/11/21 07:37:51;;;;;;;1999.90;999.90;;;;;;;;;;5113504;28;20043;-75
2022/11/21 07:40:17;;;;;;;1999.90;999.90;;;4.10;99.90;;;;;;5095374;28;20048;-74
2022/11/21 07:42:43;;;;;;;1999.90;999.90;;;5.30;99.90;;;;;;5095647;28;20039;-75
2022/11/21 07:45:09;;;;;;;1999.90;999.90;;;3.90;99.90;;;;;;5113514;28;20096;-75
2022/11/21 07:47:35;;;;;;;1999.90;999.90;;;3.60;99.90;;;;;;5111943;28;20137;-75
2022/11/21 07:50:01;;;;;;;1999.90;999.90;;;4.40;99.90;;;;;;5112954;28;20087;-74
2022/11/21 07:52:29;;;;;;;1999.90;999.90;;;5.30;99.90;;;;;;5113047;28;20039;-75
2022/11/21 07:54:55;;;;;;;1999.90;999.90;;;4.10;99.90;;;;;;5112734;28;20118;-75
2022/11/21 07:57:21;;;;;;;1999.90;999.90;;;4.20;99.90;;;;;;5112567;28;20507;-75
2022/11/21 07:59:46;;;;;;;1999.90;999.90;;;3.50;99.90;;;;;;5112705;28;20081;-75
2022/11/21 08:02:23;;;;;;;1999.90;999.90;;;6.70;99.90;;;;;;5094334;28;20138;-76
2022/11/21 08:04:49;;;;;;;1999.90;999.90;;;3.50;99.90;;;;;;5112774;28;20036;-75
2022/11/21 08:07:17;;;;;;;1999.90;999.90;;;5.40;99.90;;;;;;5112258;28;20055;-75
2022/11/21 08:09:43;;;;;;;1999.90;999.90;;;6.20;99.90;;;;;;5094974;28;20100;-75
2022/11/21 08:12:10;;;;;;;1999.90;999.90;;;4.30;99.90;;;;;;5094227;28;20040;-74
2022/11/21 08:14:36;;;;;;;1999.90;999.90;;;3.60;99.90;;;;;;5094852;28;20043;-74
2022/11/21 08:17:03;;;;;;;1999.90;999.90;;;2.60;99.90;;;;;;5112540;28;20181;-74
2022/11/21 08:19:29;;;;;;;1999.90;999.90;;;4.60;99.90;;;;;;5112858;28;20048;-75
2022/11/21 08:21:54;;;;;;;1999.90;999.90;;;4.60;99.90;;;;;;5094308;28;20051;-74
2022/11/21 08:24:20;;;;;;;1999.90;999.90;;;6.40;99.90;;;;;;5095096;28;20055;-74
2022/11/21 08:26:46;;;;;;;1999.90;999.90;;;5.00;99.90;;;;;;5094790;28;20051;-74
2022/11/21 08:29:14;;;;;;;1999.90;999.90;;;5.50;99.90;;;;;;5112979;28;20101;-74
2022/11/21 08:31:40;;;;;;;1999.90;999.90;;;6.20;99.90;;;;;;5112289;28;20039;-75
2022/11/21 08:34:06;;;;;;;1999.90;999.90;;;5.10;99.90;;;;;;5097376;28;20040;-75
2022/11/21 08:36:32;;;;;;;1999.90;999.90;;;5.40;99.90;;;;;;5116631;28;20043;-75
2022/11/21 08:38:58;;;;;;;1999.90;999.90;;;;;;;;;;5116887;28;20050;-76
2022/11/21 08:44:08;;;;;;;1999.90;999.90;;;6.00;99.90;;;;;;5115735;28;20055;-75
2022/11/21 08:46:36;;;;;;;1999.90;999.90;;;7.30;99.90;;;;;;5098567;28;20039;-75
2022/11/21 08:49:02;;;;;;;;;;;9.40;99.90;;;;;;5117590;28;20406;-75
2022/11/21 08:51:28;;;;;;;1999.90;999.90;;;7.00;99.90;;;;;;5115992;28;19920;-75
2022/11/21 08:53:53;;;;;;;1999.90;999.90;;;8.50;99.90;;;;;;5098548;28;20046;-75
2022/11/21 08:56:19;;;;;;;1999.90;999.90;;;9.80;99.90;;;;;;5116826;28;20173;-75
2022/11/21 08:58:44;;;;;;;1999.90;999.90;;;7.90;99.90;;;;;;5116525;28;20055;-75
2022/11/21 09:01:10;;;;;;;1999.90;999.90;;;7.90;99.90;;;;;;5116765;28;20055;-75
2022/11/21 09:03:36;;;;;;;1999.90;999.90;;;6.90;99.90;;;;;;5115125;28;20055;-75
2022/11/21 09:06:01;;;;;;;1999.90;999.90;;;10.40;99.90;;;;;;5114565;28;20051;-75
2022/11/21 09:08:29;;;;;;;1999.90;999.90;;;8.20;99.90;;;;;;5116676;28;20043;-75
2022/11/21 09:10:54;;;;;;;1999.90;984.60;;;8.80;99.90;;;;;;5116582;28;20058;-75
2022/11/21 09:13:20;;;;;;;1999.90;999.90;;;10.60;99.90;;;;;;5116232;28;20044;-75
2022/11/21 09:18:30;;;;;;;1999.90;972.17;;;7.70;99.90;;;;;;5116215;28;20288;-75
2022/11/21 09:20:56;;;;;;;1999.90;831.45;;;8.40;99.90;;;;;;5097966;28;20043;-75
2022/11/21 09:23:22;;;;;;;1999.90;913.72;;;8.50;99.90;;;;;;5098166;28;20079;-76
2022/11/21 09:25:47;;;;;;;1999.90;524.53;;;8.80;99.90;;;;;;5115654;28;20471;-75
2022/11/21 09:28:13;;;;;;;1999.90;999.90;;;9.30;99.90;;;;;;5081202;28;20499;-75
2022/11/21 09:30:40;;;;;;;1999.90;999.90;;;8.80;99.90;;;;;;5115858;28;20097;-75
2022/11/21 09:33:10;;;;;;;1999.90;731.93;;;9.30;99.90;;;;;;5115853;28;20502;-75
2022/11/21 09:35:36;;;;;;;1999.90;999.90;;;8.20;99.90;;;;;;5097456;28;20091;-75
2022/11/21 09:38:02;;;;;;;1999.90;999.90;;;7.10;99.90;;;;;;5116236;28;20043;-75
2022/11/21 09:40:29;;;;;;;1999.90;834.58;;;9.00;99.90;;;;;;5115997;28;20411;-75
2022/11/21 09:43:16;;;;;;;1999.90;999.90;;;9.40;99.90;;;;;;5115450;28;20504;-78
2022/11/21 09:46:04;;;;;;;1999.90;679.88;;;10.30;99.90;;;;;;5115345;28;20173;-74
2022/11/21 09:48:57;;;;;;;1999.90;994.45;;;10.00;99.90;;;;;;5116011;28;20176;-74
2022/11/21 09:51:24;;;;;;;1999.90;999.90;;;9.30;99.90;;;;;;5108555;28;20560;-75
2022/11/21 09:53:56;;;;;;;1999.90;999.90;;;8.50;99.90;;;;;;5115309;28;20054;-75
2022/11/21 09:56:22;;;;;;;1999.90;936.50;;;8.60;99.90;;;;;;5114466;28;20118;-74
2022/11/21 09:59:10;;;;;;;1999.90;980.85;;;10.10;99.90;;;;;;5097542;28;20202;-75
2022/11/21 10:01:37;;;;;;;1999.90;999.90;;;7.60;99.90;;;;;;5114988;28;20069;-75
2022/11/21 10:04:03;;;;;;;1999.90;999.90;;;8.90;99.90;;;;;;5114881;28;20059;-74
2022/11/21 10:06:32;;;;;;;1999.90;999.90;;;8.90;99.90;;;;;;5114849;28;20104;-75
2022/11/21 10:09:12;;;;;;;1999.90;981.97;;;11.00;99.90;;;;;;5114686;28;20044;-75
2022/11/21 10:15:14;;;;;;;1999.90;977.53;;;8.40;99.90;;;;;;5115014;28;20521;-74
2022/11/21 10:17:51;;;;;;;1999.90;905.33;;;8.90;99.90;;;;;;5115108;28;20043;-76
2022/11/21 10:20:54;;;;;;;1999.90;954.20;;;9.10;99.90;;;;;;5114669;28;20576;-75
2022/11/21 10:23:40;;;;;;;1999.90;929.80;;;9.20;99.90;;;;;;5115158;28;20058;-74
2022/11/21 10:26:14;;;;;;;1999.90;999.90;;;9.20;99.90;;;;;;5096704;28;20079;-74
2022/11/21 10:29:01;;;;;;;1999.90;999.90;;;11.50;99.90;;;;;;5114784;28;20100;-75
2022/11/21 10:31:37;;;;;;;1999.90;999.90;;;9.30;99.90;;;;;;5115001;28;20422;-75
2022/11/21 10:34:08;;;;;;;1999.90;980.15;;;10.40;99.90;;;;;;5115180;28;20122;-76
2022/11/21 10:36:40;;;;;;;1999.90;772.75;;;11.70;99.90;;;;;;5114448;28;20055;-75
2022/11/21 10:39:17;;;;;;;1999.90;999.90;;;9.80;99.90;;;;;;5114961;28;20090;-74
2022/11/21 10:41:57;;;;;;;1999.90;997.08;;;10.90;99.90;;;;;;5096638;28;20368;-75
2022/11/21 10:47:14;;;;;;;;;;;10.70;99.90;;;;;;5115093;28;20047;-76
2022/11/21 10:49:42;;;;;;;1999.90;999.90;;;11.70;99.90;;;;;;5114121;28;19920;-76
2022/11/21 10:52:15;;;;;;;1999.90;999.90;;;10.10;99.90;;;;;;5114719;28;20101;-74
2022/11/21 10:55:05;;;;;;;1999.90;999.90;;;9.90;99.90;;;;;;5096063;28;20085;-75
2022/11/21 10:57:38;;;;;;;1999.90;948.58;;;10.30;99.90;;;;;;5113785;28;20083;-74
2022/11/21 11:00:11;;;;;;;1999.90;944.65;;;10.30;99.90;;;;;;5114563;28;20044;-74
2022/11/21 11:02:37;;;;;;;1999.90;999.90;;;10.50;99.90;;;;;;5114101;28;20064;-76
2022/11/21 11:05:15;;;;;;;1999.90;933.83;;;10.80;99.90;;;;;;5113845;28;20124;-75
2022/11/21 11:07:40;;;;;;;1999.90;899.92;;;11.80;99.90;;;;;;5113572;28;20461;-75
2022/11/21 11:10:22;;;;;;;1999.90;939.80;;;10.70;99.90;;;;;;5095871;28;20052;-74
2022/11/21 11:15:38;;;;;;;1999.90;999.90;;;12.20;99.90;;;;;;5096113;28;20060;-75
2022/11/21 11:18:05;;;;;;;1999.90;999.90;;;10.60;99.90;;;;;;5113686;28;20055;-76
2022/11/21 11:20:36;;;;;;;1999.90;970.38;;;10.70;99.90;;;;;;5112289;28;20555;-74
2022/11/21 11:23:15;;;;;;;1999.90;999.90;;;10.70;99.90;;;;;;5113822;28;20043;-74
2022/11/21 11:25:50;;;;;;;1999.90;999.90;;;11.50;99.90;;;;;;5113964;28;20047;-74
2022/11/21 11:28:18;;;;;;;1999.90;999.90;;;12.70;99.90;;;;;;5113740;28;20051;-74
2022/11/21 11:30:44;;;;;;;1999.90;999.90;;;10.60;99.90;;;;;;5113604;28;20391;-75
2022/11/21 11:33:50;;;;;;;1999.90;928.47;;;10.90;99.90;;;;;;5113875;28;20039;-75
2022/11/21 11:36:39;;;;;;;1999.90;895.97;;;9.70;99.90;;;;;;5081931;28;20062;-74
2022/11/21 11:39:10;;;;;;;1999.90;934.65;;;10.80;99.90;;;;;;5094958;28;20521;-74
2022/11/21 11:47:52;;;;;;;1999.90;940.42;;;11.00;99.90;;;;;;5113721;28;20504;-74
2022/11/21 11:50:28;;;;;;;1999.90;956.42;;;11.00;99.90;;;;;;5113010;28;20400;-74
2022/11/21 11:53:10;;;;;;;1999.90;955.75;;;10.80;99.90;;;;;;5113154;28;20044;-75
2022/11/21 11:56:07;;;;;;;1999.90;929.53;;;11.00;99.90;;;;;;5113520;28;20108;-74
2022/11/21 11:58:42;;;;;;;1999.90;937.13;;;11.10;99.90;;;;;;5113576;28;20043;-74
2022/11/21 12:01:29;;;;;;;1999.90;965.42;;;11.10;99.90;;;;;;5113171;28;20047;-74
2022/11/21 12:04:19;;;;;;;1999.90;882.70;;;9.90;99.90;;;;;;5111309;28;20063;-74
2022/11/21 12:07:02;;;;;;;1999.90;955.28;;;12.10;99.90;;;;;;5112404;28;20533;-74
2022/11/21 12:09:33;;;;;;;1999.90;898.30;;;12.20;99.90;;;;;;5112438;28;20104;-74
2022/11/21 12:12:07;;;;;;;1999.90;999.90;;;9.70;99.90;;;;;;5112893;28;20043;-74
2022/11/21 12:18:08;;;;;;;1999.90;841.88;;;10.70;99.90;;;;;;5094996;28;20394;-74
2022/11/21 12:20:44;;;;;;;1999.90;882.38;;;10.80;99.90;;;;;;5085366;28;20043;-75
2022/11/21 12:23:12;;;;;;;1999.90;957.20;;;11.00;99.90;;;;;;5111778;28;20054;-75
2022/11/21 12:25:50;;;;;;;1999.90;917.38;;;10.80;99.90;;;;;;5111917;28;20036;-74
2022/11/21 12:28:47;;;;;;;1999.90;855.70;;;10.80;99.90;;;;;;5113186;28;20051;-74
2022/11/21 12:31:32;;;;;;;1999.90;953.22;;;10.80;99.90;;;;;;5086811;28;20087;-74
2022/11/21 12:34:15;;;;;;;1999.90;889.72;;;11.50;99.90;;;;;;5112716;28;20047;-74
2022/11/21 12:37:22;;;;;;;1999.90;976.90;;;10.80;99.90;;;;;;5112646;28;20051;-76
2022/11/21 12:40:28;;;;;;;1999.90;995.03;;;10.80;99.90;;;;;;5112831;28;20130;-74
2022/11/21 12:43:19;;;;;;;1999.90;906.15;;;10.10;99.90;;;;;;5112472;28;20040;-77
2022/11/21 12:46:15;;;;;;;1999.90;881.35;;;10.90;99.90;;;;;;5112883;28;20051;-74
2022/11/21 12:55:34;;;;;;;1999.90;990.33;;;10.10;99.90;;;;;;5112468;28;20050;-74
2022/11/21 12:58:03;;;;;;;1999.90;919.05;;;10.90;99.90;;;;;;5112543;28;20043;-74
2022/11/21 13:00:50;;;;;;;1999.90;892.08;;;10.90;99.90;;;;;;5112634;28;20098;-74